sensor_id;sensor_type;location;lat;lon;timestamp;pressure;altitude;pressure_sealevel;temperature;humidity
27908;BME280;15249;48.092;11.484;2022-09-13T00:00:30;95089.29000000001;;;11.14;81.35352
27908;BME280;15249;48.092;11.484;2022-09-13T00:01:31;95089.29000000001;;;11.14;81.35352
27908;BME280;15249;48.092;11.484;2022-09-13T00:02:32;95089.29000000001;;;11.14;81.35352
27908;BME280;15249;48.092;11.484;2022-09-13T00:03:32;95089.29000000001;;;11.14;81.35352
27908;BME280;15249;48.092;11.484;2022-09-13T00:04:33;95089.29000000001;;;11.14;81.35352
27908;BME280;15249;48.092;11.484;2022-09-13T00:05:35;95065.97;;;11.07;81.4375
27908;BME280;15249;48.092;11.484;2022-09-13T00:06:36;95065.97;;;11.07;81.4375
27908;BME280;15249;48.092;11.484;2022-09-13T00:07:36;95065.97;;;11.07;81.4375
27908;BME280;15249;48.092;11.484;2022-09-13T00:08:37;95065.97;;;11.07;81.4375
27908;BME280;15249;48.092;11.484;2022-09-13T00:09:37;95065.97;;;11.07;81.4375
27908;BME280;15249;48.092;11.484;2022-09-13T00:10:40;95065.97;;;11.07;81.4375
27908;BME280;15249;48.092;11.484;2022-09-13T00:11:41;95065.97;;;11.07;81.4375
27908;BME280;15249;48.092;11.484;2022-09-13T00:12:42;95065.97;;;11.07;81.4375
27908;BME280;15249;48.092;11.484;2022-09-13T00:13:42;95065.97;;;11.07;81.4375
27908;BME280;15249;48.092;11.484;2022-09-13T00:14:43;95065.97;;;11.07;81.4375
27908;BME280;15249;48.092;11.484;2022-09-13T00:15:45;95069.65;;;11.06;81.62988
27908;BME280;15249;48.092;11.484;2022-09-13T00:16:46;95069.65;;;11.06;81.62988
27908;BME280;15249;48.092;11.484;2022-09-13T00:17:47;95069.65;;;11.06;81.62988
27908;BME280;15249;48.092;11.484;2022-09-13T00:18:47;95069.65;;;11.06;81.62988
27908;BME280;15249;48.092;11.484;2022-09-13T00:19:48;95069.65;;;11.06;81.62988
27908;BME280;15249;48.092;11.484;2022-09-13T00:20:48;95069.65;;;11.06;81.62988
27908;BME280;15249;48.092;11.484;2022-09-13T00:21:49;95069.65;;;11.06;81.62988
27908;BME280;15249;48.092;11.484;2022-09-13T00:22:49;95069.65;;;11.06;81.62988
27908;BME280;15249;48.092;11.484;2022-09-13T00:23:51;95069.65;;;11.06;81.62988
27908;BME280;15249;48.092;11.484;2022-09-13T00:24:52;95069.65;;;11.06;81.62988
27908;BME280;15249;48.092;11.484;2022-09-13T00:25:52;95069.65;;;11.06;81.62988
27908;BME280;15249;48.092;11.484;2022-09-13T00:27:01;95048.15999999999;;;11;81.84277
27908;BME280;15249;48.092;11.484;2022-09-13T00:28:02;95048.15999999999;;;11;81.84277
27908;BME280;15249;48.092;11.484;2022-09-13T00:29:03;95048.15999999999;;;11;81.84277
27908;BME280;15249;48.092;11.484;2022-09-13T00:30:06;95048.15999999999;;;11;81.84277
27908;BME280;15249;48.092;11.484;2022-09-13T00:31:08;95048.15999999999;;;11;81.84277
27908;BME280;15249;48.092;11.484;2022-09-13T00:32:09;95048.15999999999;;;11;81.84277
27908;BME280;15249;48.092;11.484;2022-09-13T00:33:09;95048.15999999999;;;11;81.84277
27908;BME280;15249;48.092;11.484;2022-09-13T00:34:10;95048.15999999999;;;11;81.84277
27908;BME280;15249;48.092;11.484;2022-09-13T00:35:10;95048.15999999999;;;11;81.84277
27908;BME280;15249;48.092;11.484;2022-09-13T00:36:12;95048.15999999999;;;11;81.84277
27908;BME280;15249;48.092;11.484;2022-09-13T00:37:12;95039.33;;;11.06;82.04688
27908;BME280;15249;48.092;11.484;2022-09-13T00:38:13;95039.33;;;11.06;82.04688
27908;BME280;15249;48.092;11.484;2022-09-13T00:39:13;95039.33;;;11.06;82.04688
27908;BME280;15249;48.092;11.484;2022-09-13T00:40:14;95039.33;;;11.06;82.04688
27908;BME280;15249;48.092;11.484;2022-09-13T00:41:17;95039.33;;;11.06;82.04688
27908;BME280;15249;48.092;11.484;2022-09-13T00:42:24;95039.33;;;11.06;82.04688
27908;BME280;15249;48.092;11.484;2022-09-13T00:43:40;95039.33;;;11.06;82.04688
27908;BME280;15249;48.092;11.484;2022-09-13T00:44:49;95039.33;;;11.06;82.04688
27908;BME280;15249;48.092;11.484;2022-09-13T00:45:52;95039.33;;;11.06;82.04688
27908;BME280;15249;48.092;11.484;2022-09-13T00:46:53;95039.33;;;11.06;82.04688
27908;BME280;15249;48.092;11.484;2022-09-13T00:47:56;95034.41;;;11.09;82.32227
27908;BME280;15249;48.092;11.484;2022-09-13T00:49:02;95034.41;;;11.09;82.32227
27908;BME280;15249;48.092;11.484;2022-09-13T00:50:14;95034.41;;;11.09;82.32227
27908;BME280;15249;48.092;11.484;2022-09-13T00:51:17;95034.41;;;11.09;82.32227
27908;BME280;15249;48.092;11.484;2022-09-13T00:52:19;95034.41;;;11.09;82.32227
27908;BME280;15249;48.092;11.484;2022-09-13T00:53:25;95034.41;;;11.09;82.32227
27908;BME280;15249;48.092;11.484;2022-09-13T00:54:33;95034.41;;;11.09;82.32227
27908;BME280;15249;48.092;11.484;2022-09-13T00:55:40;95034.41;;;11.09;82.32227
27908;BME280;15249;48.092;11.484;2022-09-13T00:56:45;95034.41;;;11.09;82.32227
27908;BME280;15249;48.092;11.484;2022-09-13T00:57:48;95034.41;;;11.09;82.32227
27908;BME280;15249;48.092;11.484;2022-09-13T00:58:51;95041.17;;;11.14;82.62109
27908;BME280;15249;48.092;11.484;2022-09-13T00:59:58;95041.17;;;11.14;82.62109
27908;BME280;15249;48.092;11.484;2022-09-13T01:01:02;95041.17;;;11.14;82.62109
27908;BME280;15249;48.092;11.484;2022-09-13T01:02:05;95041.17;;;11.14;82.62109
27908;BME280;15249;48.092;11.484;2022-09-13T01:03:08;95041.17;;;11.14;82.62109
27908;BME280;15249;48.092;11.484;2022-09-13T01:04:11;95041.17;;;11.14;82.62109
27908;BME280;15249;48.092;11.484;2022-09-13T01:05:13;95041.17;;;11.14;82.62109
27908;BME280;15249;48.092;11.484;2022-09-13T01:06:16;95041.17;;;11.14;82.62109
27908;BME280;15249;48.092;11.484;2022-09-13T01:07:18;95041.17;;;11.14;82.62109
27908;BME280;15249;48.092;11.484;2022-09-13T01:08:22;95041.17;;;11.14;82.62109
27908;BME280;15249;48.092;11.484;2022-09-13T01:09:23;95019.26;;;11.25;82.6748
27908;BME280;15249;48.092;11.484;2022-09-13T01:10:24;95019.26;;;11.25;82.6748
27908;BME280;15249;48.092;11.484;2022-09-13T01:11:28;95019.26;;;11.25;82.6748
27908;BME280;15249;48.092;11.484;2022-09-13T01:12:34;95019.26;;;11.25;82.6748
27908;BME280;15249;48.092;11.484;2022-09-13T01:13:37;95019.26;;;11.25;82.6748
27908;BME280;15249;48.092;11.484;2022-09-13T01:14:38;95019.26;;;11.25;82.6748
27908;BME280;15249;48.092;11.484;2022-09-13T01:15:40;95019.26;;;11.25;82.6748
27908;BME280;15249;48.092;11.484;2022-09-13T01:16:41;95019.26;;;11.25;82.6748
27908;BME280;15249;48.092;11.484;2022-09-13T01:17:42;95019.26;;;11.25;82.6748
27908;BME280;15249;48.092;11.484;2022-09-13T01:18:42;95019.26;;;11.25;82.6748
27908;BME280;15249;48.092;11.484;2022-09-13T01:19:43;95005.57;;;11.23;82.64844
27908;BME280;15249;48.092;11.484;2022-09-13T01:20:53;95005.57;;;11.23;82.64844
27908;BME280;15249;48.092;11.484;2022-09-13T01:27:24;95005.57;;;11.23;82.64844
27908;BME280;15249;48.092;11.484;2022-09-13T01:28:41;95005.57;;;11.23;82.64844
27908;BME280;15249;48.092;11.484;2022-09-13T01:30:15;95001.42;;;11.21;82.79492
27908;BME280;15249;48.092;11.484;2022-09-13T01:31:19;95001.42;;;11.21;82.79492
27908;BME280;15249;48.092;11.484;2022-09-13T01:32:30;95001.42;;;11.21;82.79492
27908;BME280;15249;48.092;11.484;2022-09-13T01:33:45;95001.42;;;11.21;82.79492
27908;BME280;15249;48.092;11.484;2022-09-13T01:34:54;95001.42;;;11.21;82.79492
27908;BME280;15249;48.092;11.484;2022-09-13T01:36:10;95001.42;;;11.21;82.79492
27908;BME280;15249;48.092;11.484;2022-09-13T01:37:28;95001.42;;;11.21;82.79492
27908;BME280;15249;48.092;11.484;2022-09-13T01:38:42;95001.42;;;11.21;82.79492
27908;BME280;15249;48.092;11.484;2022-09-13T01:40:02;95001.42;;;11.21;82.79492
27908;BME280;15249;48.092;11.484;2022-09-13T01:41:09;94990.67;;;11.1;82.96777
27908;BME280;15249;48.092;11.484;2022-09-13T01:42:22;94990.67;;;11.1;82.96777
27908;BME280;15249;48.092;11.484;2022-09-13T01:43:39;94990.67;;;11.1;82.96777
27908;BME280;15249;48.092;11.484;2022-09-13T01:44:55;94990.67;;;11.1;82.96777
27908;BME280;15249;48.092;11.484;2022-09-13T01:46:03;94990.67;;;11.1;82.96777
27908;BME280;15249;48.092;11.484;2022-09-13T01:47:14;94990.67;;;11.1;82.96777
27908;BME280;15249;48.092;11.484;2022-09-13T01:48:22;94990.67;;;11.1;82.96777
27908;BME280;15249;48.092;11.484;2022-09-13T01:49:31;94990.67;;;11.1;82.96777
27908;BME280;15249;48.092;11.484;2022-09-13T01:50:39;94990.67;;;11.1;82.96777
27908;BME280;15249;48.092;11.484;2022-09-13T01:51:47;94991.74;;;11.15;83.18164
27908;BME280;15249;48.092;11.484;2022-09-13T01:52:54;94991.74;;;11.15;83.18164
27908;BME280;15249;48.092;11.484;2022-09-13T01:54:09;94991.74;;;11.15;83.18164
27908;BME280;15249;48.092;11.484;2022-09-13T01:55:19;94991.74;;;11.15;83.18164
27908;BME280;15249;48.092;11.484;2022-09-13T01:56:25;94991.74;;;11.15;83.18164
27908;BME280;15249;48.092;11.484;2022-09-13T01:57:31;94991.74;;;11.15;83.18164
27908;BME280;15249;48.092;11.484;2022-09-13T01:58:38;94991.74;;;11.15;83.18164
27908;BME280;15249;48.092;11.484;2022-09-13T01:59:47;94991.74;;;11.15;83.18164
27908;BME280;15249;48.092;11.484;2022-09-13T02:00:54;94991.74;;;11.15;83.18164
27908;BME280;15249;48.092;11.484;2022-09-13T02:01:59;94991.74;;;11.15;83.18164
27908;BME280;15249;48.092;11.484;2022-09-13T02:03:05;94986.33;;;11.06;83.25195
27908;BME280;15249;48.092;11.484;2022-09-13T02:04:10;94986.33;;;11.06;83.25195
27908;BME280;15249;48.092;11.484;2022-09-13T02:05:16;94986.33;;;11.06;83.25195
27908;BME280;15249;48.092;11.484;2022-09-13T02:06:20;94986.33;;;11.06;83.25195
27908;BME280;15249;48.092;11.484;2022-09-13T02:07:28;94986.33;;;11.06;83.25195
27908;BME280;15249;48.092;11.484;2022-09-13T02:08:36;94986.33;;;11.06;83.25195
27908;BME280;15249;48.092;11.484;2022-09-13T02:09:41;94986.33;;;11.06;83.25195
27908;BME280;15249;48.092;11.484;2022-09-13T02:10:46;94986.33;;;11.06;83.25195
27908;BME280;15249;48.092;11.484;2022-09-13T02:11:56;94986.33;;;11.06;83.25195
27908;BME280;15249;48.092;11.484;2022-09-13T02:13:03;94981.33;;;11.07;83.45801
27908;BME280;15249;48.092;11.484;2022-09-13T02:14:07;94981.33;;;11.07;83.45801
27908;BME280;15249;48.092;11.484;2022-09-13T02:15:14;94981.33;;;11.07;83.45801
27908;BME280;15249;48.092;11.484;2022-09-13T02:16:19;94981.33;;;11.07;83.45801
27908;BME280;15249;48.092;11.484;2022-09-13T02:17:24;94981.33;;;11.07;83.45801
27908;BME280;15249;48.092;11.484;2022-09-13T02:18:30;94981.33;;;11.07;83.45801
27908;BME280;15249;48.092;11.484;2022-09-13T02:19:35;94981.33;;;11.07;83.45801
27908;BME280;15249;48.092;11.484;2022-09-13T02:20:39;94981.33;;;11.07;83.45801
27908;BME280;15249;48.092;11.484;2022-09-13T02:21:47;94981.33;;;11.07;83.45801
27908;BME280;15249;48.092;11.484;2022-09-13T02:22:54;94981.33;;;11.07;83.45801
27908;BME280;15249;48.092;11.484;2022-09-13T02:24:00;94998.05;;;11.05;83.53906
27908;BME280;15249;48.092;11.484;2022-09-13T02:25:05;94998.05;;;11.05;83.53906
27908;BME280;15249;48.092;11.484;2022-09-13T02:26:06;94998.05;;;11.05;83.53906
27908;BME280;15249;48.092;11.484;2022-09-13T02:27:13;94998.05;;;11.05;83.53906
27908;BME280;15249;48.092;11.484;2022-09-13T02:28:23;94998.05;;;11.05;83.53906
27908;BME280;15249;48.092;11.484;2022-09-13T02:29:29;94998.05;;;11.05;83.53906
27908;BME280;15249;48.092;11.484;2022-09-13T02:30:31;94998.05;;;11.05;83.53906
27908;BME280;15249;48.092;11.484;2022-09-13T02:31:39;94998.05;;;11.05;83.53906
27908;BME280;15249;48.092;11.484;2022-09-13T02:32:44;94998.05;;;11.05;83.53906
27908;BME280;15249;48.092;11.484;2022-09-13T02:33:51;94998.05;;;11.05;83.53906
27908;BME280;15249;48.092;11.484;2022-09-13T02:34:57;94997.1;;;11.08;83.66406
27908;BME280;15249;48.092;11.484;2022-09-13T02:36:02;94997.1;;;11.08;83.66406
27908;BME280;15249;48.092;11.484;2022-09-13T02:37:03;94997.1;;;11.08;83.66406
27908;BME280;15249;48.092;11.484;2022-09-13T02:38:09;94997.1;;;11.08;83.66406
27908;BME280;15249;48.092;11.484;2022-09-13T02:39:14;94997.1;;;11.08;83.66406
27908;BME280;15249;48.092;11.484;2022-09-13T02:40:18;94997.1;;;11.08;83.66406
27908;BME280;15249;48.092;11.484;2022-09-13T02:41:26;94997.1;;;11.08;83.66406
27908;BME280;15249;48.092;11.484;2022-09-13T02:42:32;94997.1;;;11.08;83.66406
27908;BME280;15249;48.092;11.484;2022-09-13T02:43:39;94997.1;;;11.08;83.66406
27908;BME280;15249;48.092;11.484;2022-09-13T02:44:42;94997.1;;;11.08;83.66406
27908;BME280;15249;48.092;11.484;2022-09-13T02:45:48;94998.91;;;11.02;83.70508
27908;BME280;15249;48.092;11.484;2022-09-13T02:47:07;94998.91;;;11.02;83.70508
27908;BME280;15249;48.092;11.484;2022-09-13T02:48:16;94998.91;;;11.02;83.70508
27908;BME280;15249;48.092;11.484;2022-09-13T02:49:25;94998.91;;;11.02;83.70508
27908;BME280;15249;48.092;11.484;2022-09-13T02:50:37;94998.91;;;11.02;83.70508
27908;BME280;15249;48.092;11.484;2022-09-13T02:51:51;94998.91;;;11.02;83.70508
27908;BME280;15249;48.092;11.484;2022-09-13T02:53:02;94998.91;;;11.02;83.70508
27908;BME280;15249;48.092;11.484;2022-09-13T02:54:11;94998.91;;;11.02;83.70508
27908;BME280;15249;48.092;11.484;2022-09-13T02:55:19;94998.91;;;11.02;83.70508
27908;BME280;15249;48.092;11.484;2022-09-13T02:56:25;95001.97;;;11.02;83.85742
27908;BME280;15249;48.092;11.484;2022-09-13T02:57:35;95001.97;;;11.02;83.85742
27908;BME280;15249;48.092;11.484;2022-09-13T02:58:43;95001.97;;;11.02;83.85742
27908;BME280;15249;48.092;11.484;2022-09-13T02:59:47;95001.97;;;11.02;83.85742
27908;BME280;15249;48.092;11.484;2022-09-13T03:00:47;95001.97;;;11.02;83.85742
27908;BME280;15249;48.092;11.484;2022-09-13T03:01:51;95001.97;;;11.02;83.85742
27908;BME280;15249;48.092;11.484;2022-09-13T03:02:55;95001.97;;;11.02;83.85742
27908;BME280;15249;48.092;11.484;2022-09-13T03:03:57;95001.97;;;11.02;83.85742
27908;BME280;15249;48.092;11.484;2022-09-13T03:04:59;95001.97;;;11.02;83.85742
27908;BME280;15249;48.092;11.484;2022-09-13T03:05:59;95001.97;;;11.02;83.85742
27908;BME280;15249;48.092;11.484;2022-09-13T03:07:00;95001.97;;;11.02;83.85742
27908;BME280;15249;48.092;11.484;2022-09-13T03:08:01;95001.97;;;11.02;83.85742
27908;BME280;15249;48.092;11.484;2022-09-13T03:09:03;95001.97;;;11.02;83.85742
27908;BME280;15249;48.092;11.484;2022-09-13T03:10:07;95001.97;;;11.02;83.85742
27908;BME280;15249;48.092;11.484;2022-09-13T03:11:14;95001.97;;;11.02;83.85742
27908;BME280;15249;48.092;11.484;2022-09-13T03:12:31;95001.97;;;11.02;83.85742
27908;BME280;15249;48.092;11.484;2022-09-13T03:13:42;95001.97;;;11.02;83.85742
27908;BME280;15249;48.092;11.484;2022-09-13T03:14:54;95001.97;;;11.02;83.85742
27908;BME280;15249;48.092;11.484;2022-09-13T03:16:04;95001.97;;;11.02;83.85742
27908;BME280;15249;48.092;11.484;2022-09-13T03:17:14;95001.11;;;11.05;84.03223
27908;BME280;15249;48.092;11.484;2022-09-13T03:18:33;95001.11;;;11.05;84.03223
27908;BME280;15249;48.092;11.484;2022-09-13T03:19:47;95001.11;;;11.05;84.03223
27908;BME280;15249;48.092;11.484;2022-09-13T03:21:00;95001.11;;;11.05;84.03223
27908;BME280;15249;48.092;11.484;2022-09-13T03:22:16;95001.11;;;11.05;84.03223
27908;BME280;15249;48.092;11.484;2022-09-13T03:23:33;95001.11;;;11.05;84.03223
27908;BME280;15249;48.092;11.484;2022-09-13T03:24:42;95001.11;;;11.05;84.03223
27908;BME280;15249;48.092;11.484;2022-09-13T03:26:16;95001.11;;;11.05;84.03223
27908;BME280;15249;48.092;11.484;2022-09-13T03:27:25;95001.11;;;11.05;84.03223
27908;BME280;15249;48.092;11.484;2022-09-13T03:28:36;95000.59;;;10.96;84.05957
27908;BME280;15249;48.092;11.484;2022-09-13T03:29:42;95000.59;;;10.96;84.05957
27908;BME280;15249;48.092;11.484;2022-09-13T03:30:49;95000.59;;;10.96;84.05957
27908;BME280;15249;48.092;11.484;2022-09-13T03:32:02;95000.59;;;10.96;84.05957
27908;BME280;15249;48.092;11.484;2022-09-13T03:33:11;95000.59;;;10.96;84.05957
27908;BME280;15249;48.092;11.484;2022-09-13T03:34:23;95000.59;;;10.96;84.05957
27908;BME280;15249;48.092;11.484;2022-09-13T03:35:35;95000.59;;;10.96;84.05957
27908;BME280;15249;48.092;11.484;2022-09-13T03:36:43;95000.59;;;10.96;84.05957
27908;BME280;15249;48.092;11.484;2022-09-13T03:37:55;95000.59;;;10.96;84.05957
27908;BME280;15249;48.092;11.484;2022-09-13T03:39:01;94977.78;;;10.9;84.16504
27908;BME280;15249;48.092;11.484;2022-09-13T03:40:11;94977.78;;;10.9;84.16504
27908;BME280;15249;48.092;11.484;2022-09-13T03:41:14;94977.78;;;10.9;84.16504
27908;BME280;15249;48.092;11.484;2022-09-13T03:42:22;94977.78;;;10.9;84.16504
27908;BME280;15249;48.092;11.484;2022-09-13T03:43:26;94977.78;;;10.9;84.16504
27908;BME280;15249;48.092;11.484;2022-09-13T03:44:30;94977.78;;;10.9;84.16504
27908;BME280;15249;48.092;11.484;2022-09-13T03:45:35;94977.78;;;10.9;84.16504
27908;BME280;15249;48.092;11.484;2022-09-13T03:46:40;94977.78;;;10.9;84.16504
27908;BME280;15249;48.092;11.484;2022-09-13T03:47:42;94977.78;;;10.9;84.16504
27908;BME280;15249;48.092;11.484;2022-09-13T03:48:45;94988.78;;;10.81;84.32031
27908;BME280;15249;48.092;11.484;2022-09-13T03:49:47;94988.78;;;10.81;84.32031
27908;BME280;15249;48.092;11.484;2022-09-13T03:50:48;94988.78;;;10.81;84.32031
27908;BME280;15249;48.092;11.484;2022-09-13T03:51:50;94988.78;;;10.81;84.32031
27908;BME280;15249;48.092;11.484;2022-09-13T03:52:55;94988.78;;;10.81;84.32031
27908;BME280;15249;48.092;11.484;2022-09-13T03:54:01;94988.78;;;10.81;84.32031
27908;BME280;15249;48.092;11.484;2022-09-13T03:55:03;94988.78;;;10.81;84.32031
27908;BME280;15249;48.092;11.484;2022-09-13T03:56:11;94988.78;;;10.81;84.32031
27908;BME280;15249;48.092;11.484;2022-09-13T03:57:14;94988.78;;;10.81;84.32031
27908;BME280;15249;48.092;11.484;2022-09-13T03:58:18;94988.78;;;10.81;84.32031
27908;BME280;15249;48.092;11.484;2022-09-13T03:59:19;94988.78;;;10.81;84.32031
27908;BME280;15249;48.092;11.484;2022-09-13T04:00:20;95009.77;;;10.85;84.52051
27908;BME280;15249;48.092;11.484;2022-09-13T04:01:22;95009.77;;;10.85;84.52051
27908;BME280;15249;48.092;11.484;2022-09-13T04:02:24;95009.77;;;10.85;84.52051
27908;BME280;15249;48.092;11.484;2022-09-13T04:03:25;95009.77;;;10.85;84.52051
27908;BME280;15249;48.092;11.484;2022-09-13T04:04:26;95009.77;;;10.85;84.52051
27908;BME280;15249;48.092;11.484;2022-09-13T04:05:26;95009.77;;;10.85;84.52051
27908;BME280;15249;48.092;11.484;2022-09-13T04:06:27;95009.77;;;10.85;84.52051
27908;BME280;15249;48.092;11.484;2022-09-13T04:07:27;95009.77;;;10.85;84.52051
27908;BME280;15249;48.092;11.484;2022-09-13T04:08:28;95009.77;;;10.85;84.52051
27908;BME280;15249;48.092;11.484;2022-09-13T04:09:28;95009.77;;;10.85;84.52051
27908;BME280;15249;48.092;11.484;2022-09-13T04:10:31;95009.11;;;10.8;84.59766
27908;BME280;15249;48.092;11.484;2022-09-13T04:11:32;95009.11;;;10.8;84.59766
27908;BME280;15249;48.092;11.484;2022-09-13T04:12:32;95009.11;;;10.8;84.59766
27908;BME280;15249;48.092;11.484;2022-09-13T04:13:33;95009.11;;;10.8;84.59766
27908;BME280;15249;48.092;11.484;2022-09-13T04:14:33;95009.11;;;10.8;84.59766
27908;BME280;15249;48.092;11.484;2022-09-13T04:15:34;95009.11;;;10.8;84.59766
27908;BME280;15249;48.092;11.484;2022-09-13T04:16:34;95009.11;;;10.8;84.59766
27908;BME280;15249;48.092;11.484;2022-09-13T04:17:35;95009.11;;;10.8;84.59766
27908;BME280;15249;48.092;11.484;2022-09-13T04:18:35;95009.11;;;10.8;84.59766
27908;BME280;15249;48.092;11.484;2022-09-13T04:19:36;95009.11;;;10.8;84.59766
27908;BME280;15249;48.092;11.484;2022-09-13T04:20:37;95009.11;;;10.8;84.59766
27908;BME280;15249;48.092;11.484;2022-09-13T04:21:37;95001.12000000001;;;10.78;84.75293
27908;BME280;15249;48.092;11.484;2022-09-13T04:22:38;95001.12000000001;;;10.78;84.75293
27908;BME280;15249;48.092;11.484;2022-09-13T04:23:38;95001.12000000001;;;10.78;84.75293
27908;BME280;15249;48.092;11.484;2022-09-13T04:24:39;95001.12000000001;;;10.78;84.75293
27908;BME280;15249;48.092;11.484;2022-09-13T04:25:39;95001.12000000001;;;10.78;84.75293
27908;BME280;15249;48.092;11.484;2022-09-13T04:26:40;95001.12000000001;;;10.78;84.75293
27908;BME280;15249;48.092;11.484;2022-09-13T04:27:40;95001.12000000001;;;10.78;84.75293
27908;BME280;15249;48.092;11.484;2022-09-13T04:28:41;95001.12000000001;;;10.78;84.75293
27908;BME280;15249;48.092;11.484;2022-09-13T04:29:41;95001.12000000001;;;10.78;84.75293
27908;BME280;15249;48.092;11.484;2022-09-13T04:30:43;95001.12000000001;;;10.78;84.75293
27908;BME280;15249;48.092;11.484;2022-09-13T04:31:43;95001.12000000001;;;10.78;84.75293
27908;BME280;15249;48.092;11.484;2022-09-13T04:32:44;95001.12000000001;;;10.78;84.75293
27908;BME280;15249;48.092;11.484;2022-09-13T04:33:44;95001.12000000001;;;10.78;84.75293
27908;BME280;15249;48.092;11.484;2022-09-13T04:34:46;95001.12000000001;;;10.78;84.75293
27908;BME280;15249;48.092;11.484;2022-09-13T04:35:47;95001.12000000001;;;10.78;84.75293
27908;BME280;15249;48.092;11.484;2022-09-13T04:36:48;95001.12000000001;;;10.78;84.75293
27908;BME280;15249;48.092;11.484;2022-09-13T04:37:49;95001.12000000001;;;10.78;84.75293
27908;BME280;15249;48.092;11.484;2022-09-13T04:38:50;95001.12000000001;;;10.78;84.75293
27908;BME280;15249;48.092;11.484;2022-09-13T04:39:50;95001.12000000001;;;10.78;84.75293
27908;BME280;15249;48.092;11.484;2022-09-13T04:40:52;95001.12000000001;;;10.78;84.75293
27908;BME280;15249;48.092;11.484;2022-09-13T04:41:54;95001.12000000001;;;10.78;84.75293
27908;BME280;15249;48.092;11.484;2022-09-13T04:42:54;95000.48000000001;;;10.88;84.87109
27908;BME280;15249;48.092;11.484;2022-09-13T04:43:55;95000.48000000001;;;10.88;84.87109
27908;BME280;15249;48.092;11.484;2022-09-13T04:44:55;95000.48000000001;;;10.88;84.87109
27908;BME280;15249;48.092;11.484;2022-09-13T04:45:58;95000.48000000001;;;10.88;84.87109
27908;BME280;15249;48.092;11.484;2022-09-13T04:46:59;95000.48000000001;;;10.88;84.87109
27908;BME280;15249;48.092;11.484;2022-09-13T04:48:00;95000.48000000001;;;10.88;84.87109
27908;BME280;15249;48.092;11.484;2022-09-13T04:49:00;95000.48000000001;;;10.88;84.87109
27908;BME280;15249;48.092;11.484;2022-09-13T04:50:01;95000.48000000001;;;10.88;84.87109
27908;BME280;15249;48.092;11.484;2022-09-13T04:51:04;95000.48000000001;;;10.88;84.87109
27908;BME280;15249;48.092;11.484;2022-09-13T04:52:04;95000.48000000001;;;10.88;84.87109
27908;BME280;15249;48.092;11.484;2022-09-13T04:53:05;95004.63;;;10.9;84.96973
27908;BME280;15249;48.092;11.484;2022-09-13T04:54:05;95004.63;;;10.9;84.96973
27908;BME280;15249;48.092;11.484;2022-09-13T04:55:07;95004.63;;;10.9;84.96973
27908;BME280;15249;48.092;11.484;2022-09-13T04:56:09;95004.63;;;10.9;84.96973
27908;BME280;15249;48.092;11.484;2022-09-13T04:57:11;95004.63;;;10.9;84.96973
27908;BME280;15249;48.092;11.484;2022-09-13T04:58:11;95004.63;;;10.9;84.96973
27908;BME280;15249;48.092;11.484;2022-09-13T04:59:13;95004.63;;;10.9;84.96973
27908;BME280;15249;48.092;11.484;2022-09-13T05:00:14;95004.63;;;10.9;84.96973
27908;BME280;15249;48.092;11.484;2022-09-13T05:01:15;95004.63;;;10.9;84.96973
27908;BME280;15249;48.092;11.484;2022-09-13T05:02:15;95004.63;;;10.9;84.96973
27908;BME280;15249;48.092;11.484;2022-09-13T05:03:16;95004.63;;;10.9;84.96973
27908;BME280;15249;48.092;11.484;2022-09-13T05:04:16;95013.18;;;10.98;84.9541
27908;BME280;15249;48.092;11.484;2022-09-13T05:05:17;95013.18;;;10.98;84.9541
27908;BME280;15249;48.092;11.484;2022-09-13T05:06:18;95013.18;;;10.98;84.9541
27908;BME280;15249;48.092;11.484;2022-09-13T05:07:19;95013.18;;;10.98;84.9541
27908;BME280;15249;48.092;11.484;2022-09-13T05:08:19;95013.18;;;10.98;84.9541
27908;BME280;15249;48.092;11.484;2022-09-13T05:09:20;95013.18;;;10.98;84.9541
27908;BME280;15249;48.092;11.484;2022-09-13T05:10:20;95013.18;;;10.98;84.9541
27908;BME280;15249;48.092;11.484;2022-09-13T05:11:22;95013.18;;;10.98;84.9541
27908;BME280;15249;48.092;11.484;2022-09-13T05:12:23;95013.18;;;10.98;84.9541
27908;BME280;15249;48.092;11.484;2022-09-13T05:13:24;95013.18;;;10.98;84.9541
27908;BME280;15249;48.092;11.484;2022-09-13T05:14:25;95021.57999999999;;;11.04;84.93262
27908;BME280;15249;48.092;11.484;2022-09-13T05:15:25;95021.57999999999;;;11.04;84.93262
27908;BME280;15249;48.092;11.484;2022-09-13T05:16:28;95021.57999999999;;;11.04;84.93262
27908;BME280;15249;48.092;11.484;2022-09-13T05:17:28;95021.57999999999;;;11.04;84.93262
27908;BME280;15249;48.092;11.484;2022-09-13T05:18:31;95021.57999999999;;;11.04;84.93262
27908;BME280;15249;48.092;11.484;2022-09-13T05:19:32;95021.57999999999;;;11.04;84.93262
27908;BME280;15249;48.092;11.484;2022-09-13T05:20:32;95021.57999999999;;;11.04;84.93262
27908;BME280;15249;48.092;11.484;2022-09-13T05:21:33;95021.57999999999;;;11.04;84.93262
27908;BME280;15249;48.092;11.484;2022-09-13T05:22:33;95021.57999999999;;;11.04;84.93262
27908;BME280;15249;48.092;11.484;2022-09-13T05:23:34;95021.57999999999;;;11.04;84.93262
27908;BME280;15249;48.092;11.484;2022-09-13T05:24:35;95021.57999999999;;;11.04;84.93262